• Join FlightAware (Why Join?)
  • Login
  • US Flag 
11:01AM EST


 

Airport Tracker/Info


-or-


 

Live Flight TrackerFlight Track Log ✈ FIN666 ✈ 29-Nov-2013 ✈ EKCH / CPH - EFHK / HEL

Flight Track Log - Related Links

Times and Time Zones

All times are in EST time to prevent confusion due to time zone crossing. See the FIN666 flight status page for this flight to view local times or setup timezone preferences in your user account.

Time Position Orientation Groundspeed Altitude Reporting Facility
EST Latitude Longitude Course Direction KTS MPH feet Rate Location/Type
07:20AM 55.8486 13.1329 49° Northeast  Level Estimated
07:21AM 55.9251 13.2931 50° Northeast  Level Estimated
07:22AM 56.0014 13.4539 50° Northeast  Level Estimated
07:23AM 56.0774 13.6154 50° Northeast  Level Estimated
07:24AM 56.1533 13.7775 50° Northeast  Level Estimated
07:25AM 56.2337 13.9505 50° Northeast  Level Estimated
07:26AM 56.3138 14.1242 50° Northeast  Level Estimated
07:27AM 56.3936 14.2986 50° Northeast  Level Estimated
07:28AM 56.4733 14.4738 50° Northeast  Level Estimated
07:29AM 56.5527 14.6496 51° Northeast  Level Estimated
07:30AM 56.6318 14.8263 51° Northeast  Level Estimated
07:31AM 56.7107 15.0036 51° Northeast  Level Estimated
07:32AM 56.7893 15.1817 51° Northeast  Level Estimated
07:33AM 56.8677 15.3606 51° Northeast  Level Estimated
07:34AM 56.9458 15.5402 51° Northeast  Level Estimated
07:35AM 57.0236 15.7206 52° Northeast  Level Estimated
07:36AM 57.1012 15.9017 52° Northeast  Level Estimated
07:37AM 57.1786 16.0835 52° Northeast  Level Estimated
07:38AM 57.2556 16.2662 52° Northeast  Level Estimated
07:39AM 57.3325 16.4496 52° Northeast  Level Estimated
07:40AM 57.4090 16.6337 52° Northeast  Level Estimated
07:41AM 57.4853 16.8187 52° Northeast  Level Estimated
07:42AM 57.5613 17.0044 53° Northeast  Level Estimated
07:43AM 57.6370 17.1909 53° Northeast  Level Estimated
07:44AM 57.7124 17.3781 53° Northeast  Level Estimated
07:45AM 57.7876 17.5662 53° Northeast  Level Estimated
07:46AM 57.8625 17.7550 53° Northeast  Level Estimated
07:47AM 57.9371 17.9446 53° Northeast  Level Estimated
07:48AM 58.0114 18.1350 54° Northeast  Level Estimated
07:49AM 58.0855 18.3262 54° Northeast  Level Estimated
07:50AM 58.1592 18.5182 54° Northeast  Level Estimated
07:51AM 58.2327 18.7110 54° Northeast  Level Estimated
07:52AM 58.3059 18.9045 54° Northeast  Level Estimated
07:53AM 58.3787 19.0989 54° Northeast  Level Estimated
07:54AM 58.4513 19.2941 55° Northeast  Level Estimated
07:55AM 58.5236 19.4901 55° Northeast  Level Estimated
07:56AM 58.5956 19.6869 55° Northeast  Level Estimated
07:57AM 58.6673 19.8845 55° Northeast  Level Estimated
07:58AM 58.7386 20.0829 55° Northeast  Level Estimated
07:59AM 58.8097 20.2822 55° Northeast  Level Estimated
08:00AM 58.8805 20.4822 56° Northeast  Level Estimated
08:01AM 58.9509 20.6831 56° Northeast  Level Estimated
08:02AM 59.0210 20.8848 56° Northeast  Level Estimated
08:03AM 59.0909 21.0873 56° Northeast  Level Estimated
08:04AM 59.1604 21.2906 56° Northeast  Level Estimated
08:05AM 59.2285 21.4916 56° Northeast  Level Estimated
08:06AM 59.2963 21.6934 57° Northeast  Level Estimated
08:07AM 59.3638 21.8960 57° Northeast  Level Estimated
08:08AM 59.4310 22.0995 57° Northeast  Level Estimated
08:09AM 59.4979 22.3037 57° Northeast  Level Estimated
08:10AM 59.5645 22.5087 57° Northeast  Level Estimated
08:11AM 59.6307 22.7146 57° Northeast  Level Estimated
08:12AM 59.6966 22.9212 58° Northeast  Level Estimated
08:13AM 59.7622 23.1287 58° Northeast  Level Estimated
08:14AM 59.8274 23.3370 58° Northeast  Level Estimated
08:15AM 59.8923 23.5461 58° Northeast  Level Estimated
08:16AM 59.9569 23.7561 58° Northeast  Level Estimated
08:17AM 60.0212 23.9668 59° Northeast  Level Estimated
08:18AM 60.0851 24.1784 59° Northeast  Level Estimated
08:19AM 60.1487 24.3907 59° Northeast  Level Estimated
08:20AM 60.2119 24.6039 59° Northeast  Level Estimated
08:21AM 60.2748 24.8179 59° Northeast  Level Estimated
08:22AM 60.3172 24.9633 59° Northeast  Level Estimated
08:23AM 60.3172 24.9633 37° Northeast  Level Estimated
08:24AM 60.3172 24.9633 37° Northeast  Level Estimated
08:25AM 60.3172 24.9633 37° Northeast  Level Estimated
08:26AM 60.3172 24.9633 37° Northeast  Level Estimated
08:27AM 60.3172 24.9633 37° Northeast  Level Estimated
08:28AM 60.3172 24.9633 37° Northeast  Level Estimated
08:29AM 60.3172 24.9633 37° Northeast  Level Estimated
08:30AM 60.3172 24.9633 37° Northeast  Level Estimated
08:31AM 60.3172 24.9633 37° Northeast  Level Estimated
08:32AM 60.3172 24.9633 37° Northeast  Level Estimated
08:33AM 60.3172 24.9633 37° Northeast  Level Estimated
08:34AM 60.3172 24.9633 37° Northeast  Level Estimated
08:35AM 60.3172 24.9633 37° Northeast  Level Estimated
08:36AM 60.3172 24.9633 37° Northeast  Level Estimated
08:37AM 60.3172 24.9633 37° Northeast  Level Estimated